Date,TemperatureHighF,TemperatureAvgF,TemperatureLowF,DewpointHighF,DewpointAvgF,DewpointLowF,HumidityHigh,HumidityAvg,HumidityLow,PressureMaxIn,PressureMinIn,WindSpeedMaxMPH,WindSpeedAvgMPH,GustSpeedMaxMPH,PrecipitationSumIn
2013-12-1,65.6,45.3,36.6,50.3,43.2,36.6,100,94,46,30.30,30.23,0,0,1,0.01
2013-12-2,64.1,48.4,37.1,57.6,44.1,37.1,100,88,48,30.25,30.00,12,0,12,0.01
2013-12-7,45.2,35.2,27.4,28.6,24.6,12.3,100,71,29,30.29,30.09,9,0,10,0.01
2013-12-8,45.6,31.7,25.1,36.8,24.7,11.3,100,82,26,30.36,30.24,5,0,5,0.00
2013-12-9,50.2,31.7,21.5,33.6,25.9,16.5,100,84,27,30.45,30.33,3,0,3,0.01
2013-12-10,51.4,33.4,22.7,38.0,28.6,21.3,100,87,31,30.44,30.22,1,0,1,0.01
2013-12-11,55.6,36.0,25.3,41.2,30.8,25.0,100,86,32,30.28,30.18,1,0,1,0.01
2013-12-12,56.7,37.2,25.4,41.3,32.1,25.4,100,86,32,30.30,30.17,2,0,2,0.00
2013-12-13,57.9,38.2,26.7,42.9,33.4,26.6,100,87,36,30.36,30.25,2,0,2,0.01
2013-12-14,59.2,39.5,27.7,45.7,35.6,27.7,100,89,44,30.43,30.31,0,0,0,0.00
2013-12-15,59.2,39.9,29.1,48.1,37.1,29.1,100,92,52,30.40,30.25,0,0,1,0.01
2013-12-16,61.6,41.3,30.0,48.4,37.3,30.0,100,89,35,30.28,30.13,5,0,7,0.00
2013-12-17,59.2,41.0,30.4,50.7,38.8,30.4,100,93,58,30.21,30.06,1,0,1,0.01
2013-12-18,58.1,43.0,33.1,53.0,40.2,33.1,100,91,57,30.06,29.78,6,0,7,0.00
2013-12-19,61.2,48.9,37.1,40.1,28.9,7.7,100,54,13,29.92,29.74,10,0,12,0.01
2013-12-21,57.8,44.1,37.9,45.2,42.3,37.9,100,94,61,30.11,29.99,0,0,0,0.01
2013-12-22,63.6,43.9,32.2,50.9,39.8,32.2,100,89,42,30.32,30.10,4,0,4,0.01
2013-12-23,63.6,43.6,31.3,50.0,40.2,31.3,100,90,47,30.42,30.31,0,0,0,0.01
2013-12-24,65.0,44.7,33.6,51.1,41.3,33.6,100,90,44,30.37,30.21,2,0,2,0.01
2013-12-25,61.1,38.3,32.7,51.4,37.1,32.7,100,97,46,30.32,30.20,0,0,0,0.01
2013-12-26,61.6,40.7,28.5,47.3,36.3,28.5,100,88,40,30.29,30.16,0,0,0,0.01
2013-12-27,53.9,39.1,29.8,48.5,37.8,29.8,100,96,71,30.26,30.15,3,0,3,0.01
2013-12-28,60.6,40.0,28.3,47.7,36.9,28.3,100,91,48,30.18,30.03,0,0,1,0.01
2013-12-29,62.6,39.9,28.0,46.2,33.7,26.1,100,84,27,30.22,30.09,0,0,1,0.01
2013-12-30,61.9,40.9,27.5,43.0,33.8,26.4,100,82,27,30.28,30.18,3,0,3,0.01
2013-12-31,59.6,42.0,32.6,48.2,37.8,32.6,100,88,45,30.31,30.17,3,0,4,0.01